createdAt,value
2017-09-05T00:00:11.745Z,51.4
2017-09-05T00:01:14.170Z,51.5
2017-09-05T00:02:16.587Z,51.5
2017-09-05T00:03:19.000Z,51.5
2017-09-05T00:04:21.419Z,51.4
2017-09-05T00:05:23.841Z,51.6
2017-09-05T00:06:26.260Z,51.5
2017-09-05T00:07:28.684Z,51.5
2017-09-05T00:08:31.113Z,51.6
2017-09-05T00:09:33.540Z,51.7
2017-09-05T00:10:35.954Z,51.6
2017-09-05T00:11:38.381Z,51.6
2017-09-05T00:12:40.798Z,51.7
2017-09-05T00:13:43.220Z,51.7
2017-09-05T00:14:45.649Z,51.6
2017-09-05T00:15:48.057Z,51.6
2017-09-05T00:16:50.477Z,51.7
2017-09-05T00:17:52.912Z,51.7
2017-09-05T00:18:55.335Z,51.7
2017-09-05T00:19:57.756Z,51.6
2017-09-05T00:21:00.186Z,51.6
2017-09-05T00:22:02.601Z,51.7
2017-09-05T00:23:05.024Z,51.6
2017-09-05T00:24:07.447Z,51.6
2017-09-05T00:25:09.865Z,51.7
2017-09-05T00:26:12.289Z,51.7
2017-09-05T00:27:14.722Z,51.7
2017-09-05T00:28:17.141Z,51.9
2017-09-05T00:29:19.557Z,51.8
2017-09-05T00:30:21.979Z,51.7
2017-09-05T00:31:24.399Z,51.7
2017-09-05T00:32:26.824Z,51.8
2017-09-05T00:33:29.253Z,51.8
2017-09-05T00:34:31.663Z,51.8
2017-09-05T00:35:34.092Z,51.8
2017-09-05T00:36:36.516Z,51.9
2017-09-05T00:37:38.943Z,51.8
2017-09-05T00:38:41.367Z,51.8
2017-09-05T00:39:43.794Z,51.8
2017-09-05T00:40:46.215Z,51.9
2017-09-05T00:41:48.975Z,51.8
2017-09-05T00:42:51.391Z,51.8
2017-09-05T00:43:53.820Z,51.8
2017-09-05T00:44:56.235Z,51.9
2017-09-05T00:45:58.653Z,51.9
2017-09-05T00:47:01.078Z,52
2017-09-05T00:48:03.499Z,52
2017-09-05T00:49:05.924Z,52.1
2017-09-05T00:50:08.355Z,52.1
2017-09-05T00:51:10.764Z,52.1
2017-09-05T00:52:13.193Z,52
2017-09-05T00:53:15.948Z,52.1
2017-09-05T00:54:18.368Z,52.1
2017-09-05T00:55:20.793Z,52.1
2017-09-05T00:56:23.214Z,52.1
2017-09-05T00:57:25.631Z,52.1
2017-09-05T00:58:28.059Z,52.1
2017-09-05T00:59:30.485Z,52.2
2017-09-05T01:00:32.910Z,52.3
2017-09-05T01:01:35.336Z,52.2
2017-09-05T01:02:37.751Z,52.1
2017-09-05T01:03:40.174Z,52.1
2017-09-05T01:04:42.615Z,52.2
2017-09-05T01:05:45.051Z,52.1
2017-09-05T01:06:47.468Z,52.3
2017-09-05T01:07:49.882Z,52.2
2017-09-05T01:08:52.298Z,52.3
2017-09-05T01:09:54.729Z,52.2
2017-09-05T01:10:57.145Z,52.1
2017-09-05T01:11:59.568Z,52.3
2017-09-05T01:13:01.993Z,52.2
2017-09-05T01:14:04.409Z,52.2
2017-09-05T01:15:06.833Z,52.3
2017-09-05T01:16:09.261Z,52.3
2017-09-05T01:17:11.669Z,52.2
2017-09-05T01:18:14.095Z,52.2
2017-09-05T01:19:16.524Z,52.2
2017-09-05T01:20:18.941Z,52.3
2017-09-05T01:21:21.714Z,52.3
2017-09-05T01:22:24.132Z,52.4
2017-09-05T01:23:26.549Z,52.4
2017-09-05T01:24:28.977Z,52.4
2017-09-05T01:25:31.395Z,52.4
2017-09-05T01:26:33.808Z,52.4
2017-09-05T01:27:36.230Z,52.4
2017-09-05T01:28:38.652Z,52.4
2017-09-05T01:29:41.074Z,52.4
2017-09-05T01:30:43.504Z,52.4
2017-09-05T01:31:45.918Z,52.4
2017-09-05T01:32:48.337Z,52.4
2017-09-05T01:33:50.770Z,52.4
2017-09-05T01:34:53.192Z,52.4
2017-09-05T01:35:55.607Z,52.4
2017-09-05T01:36:58.035Z,52.4
2017-09-05T01:38:00.456Z,52.4
2017-09-05T01:39:02.872Z,52.5
2017-09-05T01:40:05.286Z,52.4
2017-09-05T01:41:07.721Z,52.5
2017-09-05T01:42:10.142Z,52.5
2017-09-05T01:43:12.563Z,52.5
2017-09-05T01:44:14.986Z,52.5
2017-09-05T01:45:17.412Z,52.5
2017-09-05T01:46:19.829Z,52.6
2017-09-05T01:47:22.258Z,52.5
2017-09-05T01:48:24.669Z,52.6
2017-09-05T01:49:27.082Z,52.6
2017-09-05T01:50:29.514Z,52.6
2017-09-05T01:51:31.927Z,52.7
2017-09-05T01:52:34.349Z,52.6
2017-09-05T01:53:37.105Z,52.7
2017-09-05T01:54:39.518Z,52.6
2017-09-05T01:55:41.944Z,52.8
2017-09-05T01:56:44.366Z,52.6
2017-09-05T01:57:46.775Z,52.8
2017-09-05T01:58:49.211Z,52.7
2017-09-05T01:59:51.628Z,52.8
2017-09-05T02:00:54.052Z,52.8
2017-09-05T02:01:56.823Z,52.8
2017-09-05T02:02:59.247Z,52.7
2017-09-05T02:04:02.019Z,52.8
2017-09-05T02:05:04.438Z,52.8
2017-09-05T02:06:06.861Z,52.8
2017-09-05T02:07:09.277Z,52.8
2017-09-05T02:08:12.038Z,52.8
2017-09-05T02:09:14.457Z,52.8
2017-09-05T02:10:16.877Z,52.8
2017-09-05T02:11:19.294Z,52.8
2017-09-05T02:12:21.727Z,52.8
2017-09-05T02:13:24.141Z,52.8
2017-09-05T02:14:26.575Z,52.8
2017-09-05T02:15:28.996Z,52.8
2017-09-05T02:16:31.417Z,52.9
2017-09-05T02:17:33.834Z,52.8
2017-09-05T02:18:36.260Z,52.9
2017-09-05T02:19:38.673Z,52.8
2017-09-05T02:20:41.092Z,52.8
2017-09-05T02:21:43.510Z,52.8
2017-09-05T02:22:45.932Z,52.9
2017-09-05T02:23:48.694Z,53
2017-09-05T02:24:51.119Z,52.9
2017-09-05T02:25:53.546Z,52.9
2017-09-05T02:26:55.967Z,52.8
2017-09-05T02:27:58.393Z,52.9
2017-09-05T02:29:00.814Z,52.9
2017-09-05T02:30:03.236Z,53
2017-09-05T02:31:05.649Z,53
2017-09-05T02:32:08.414Z,52.9
2017-09-05T02:33:10.835Z,53.1
2017-09-05T02:34:13.254Z,53.1
2017-09-05T02:35:15.670Z,53.2
2017-09-05T02:36:18.097Z,53.1
2017-09-05T02:37:20.517Z,53.2
2017-09-05T02:38:22.931Z,53.1
2017-09-05T02:39:25.698Z,53.2
2017-09-05T02:40:28.127Z,53.3
2017-09-05T02:41:30.552Z,53.2
2017-09-05T02:42:32.976Z,53.2
2017-09-05T02:43:35.392Z,53.3
2017-09-05T02:44:37.812Z,53.2
2017-09-05T02:45:40.247Z,53.3
2017-09-05T02:46:42.663Z,53.3
2017-09-05T02:47:45.082Z,53.2
2017-09-05T02:48:47.504Z,53.3
2017-09-05T02:49:49.924Z,53.2
2017-09-05T02:50:52.344Z,53.2
2017-09-05T02:51:54.765Z,53.3
2017-09-05T02:52:57.529Z,53.2
2017-09-05T02:53:59.955Z,53.3
2017-09-05T02:55:02.374Z,53.3
2017-09-05T02:56:04.797Z,53.2
2017-09-05T02:57:07.223Z,53.2
2017-09-05T02:58:09.650Z,53.2
2017-09-05T02:59:12.400Z,53.2
2017-09-05T03:00:14.824Z,53.2
2017-09-05T03:01:17.243Z,53.2
2017-09-05T03:02:20.008Z,53.2
2017-09-05T03:03:22.434Z,53.2
2017-09-05T03:04:24.846Z,53.2
2017-09-05T03:05:27.260Z,53.3
2017-09-05T03:06:29.684Z,53.4
2017-09-05T03:07:32.105Z,53.3
2017-09-05T03:08:34.522Z,53.3
2017-09-05T03:09:36.942Z,53.3
2017-09-05T03:10:39.365Z,53.4
2017-09-05T03:11:41.783Z,53.4
2017-09-05T03:12:44.214Z,53.4
2017-09-05T03:13:46.633Z,53.4
2017-09-05T03:14:49.052Z,53.5
2017-09-05T03:15:51.468Z,53.5
2017-09-05T03:16:53.888Z,53.5
2017-09-05T03:17:56.308Z,53.5
2017-09-05T03:18:58.729Z,53.5
2017-09-05T03:20:01.145Z,53.6
2017-09-05T03:21:03.586Z,53.6
2017-09-05T03:22:06.687Z,53.5
2017-09-05T03:23:09.107Z,53.6
2017-09-05T03:24:11.522Z,53.6
2017-09-05T03:25:13.944Z,53.6
2017-09-05T03:26:16.357Z,53.6
2017-09-05T03:27:18.782Z,53.5
2017-09-05T03:28:21.197Z,53.6
2017-09-05T03:29:23.622Z,53.6
2017-09-05T03:30:26.038Z,53.6
2017-09-05T03:31:28.463Z,53.6
2017-09-05T03:32:30.889Z,53.7
2017-09-05T03:33:33.312Z,53.7
2017-09-05T03:34:35.729Z,53.8
2017-09-05T03:35:38.156Z,53.8
2017-09-05T03:36:40.575Z,53.8
2017-09-05T03:37:43.001Z,53.8
2017-09-05T03:38:45.425Z,53.8
2017-09-05T03:39:47.835Z,53.8
2017-09-05T03:40:50.257Z,53.8
2017-09-05T03:41:53.020Z,53.9
2017-09-05T03:42:55.592Z,53.8
2017-09-05T03:43:58.010Z,53.9
2017-09-05T03:45:00.426Z,53.9
2017-09-05T03:46:03.182Z,53.9
2017-09-05T03:47:05.608Z,54
2017-09-05T03:48:08.035Z,53.9
2017-09-05T03:49:10.447Z,53.8
2017-09-05T03:50:12.871Z,53.9
2017-09-05T03:51:15.295Z,53.9
2017-09-05T03:52:17.754Z,53.9
2017-09-05T03:53:20.142Z,53.9
2017-09-05T03:54:22.555Z,53.9
2017-09-05T03:55:24.978Z,53.9
2017-09-05T03:56:27.398Z,54
2017-09-05T03:57:29.827Z,54
2017-09-05T03:58:32.245Z,53.9
2017-09-05T03:59:34.662Z,54
2017-09-05T04:00:37.078Z,54
2017-09-05T04:01:39.510Z,54
2017-09-05T04:02:41.928Z,53.9
2017-09-05T04:03:44.677Z,53.9
2017-09-05T04:04:47.096Z,54
2017-09-05T04:05:49.531Z,54.1
2017-09-05T04:06:51.946Z,54.1
2017-09-05T04:07:54.371Z,54
2017-09-05T04:08:56.784Z,54
2017-09-05T04:09:59.202Z,54
2017-09-05T04:11:01.627Z,54
2017-09-05T04:12:04.050Z,54
2017-09-05T04:13:06.464Z,54.2
2017-09-05T04:14:08.885Z,54.2
2017-09-05T04:15:11.308Z,54.2
2017-09-05T04:16:13.736Z,54.1
2017-09-05T04:17:16.162Z,54.2
2017-09-05T04:18:18.581Z,54.1
2017-09-05T04:19:20.996Z,54.1
2017-09-05T04:20:23.427Z,54.1
2017-09-05T04:21:25.844Z,54.1
2017-09-05T04:22:28.265Z,54.1
2017-09-05T04:23:30.689Z,54.1
2017-09-05T04:24:33.107Z,54
2017-09-05T04:25:35.534Z,54
2017-09-05T04:26:37.963Z,54.1
2017-09-05T04:27:40.371Z,54
2017-09-05T04:28:43.502Z,54
2017-09-05T04:29:45.929Z,54.1
2017-09-05T04:30:48.352Z,54.1
2017-09-05T04:31:50.775Z,54
2017-09-05T04:32:53.197Z,54
2017-09-05T04:33:55.614Z,54.1
2017-09-05T04:34:58.034Z,54
2017-09-05T04:36:00.457Z,54.1
2017-09-05T04:37:02.891Z,54
2017-09-05T04:38:05.304Z,54.1
2017-09-05T04:39:07.721Z,54.1
2017-09-05T04:40:10.143Z,54.2
2017-09-05T04:41:12.557Z,54.2
2017-09-05T04:42:14.985Z,54
2017-09-05T04:43:17.406Z,54
2017-09-05T04:44:19.817Z,54.1
2017-09-05T04:45:22.245Z,54
2017-09-05T04:46:24.664Z,54.1
2017-09-05T04:47:27.081Z,54.1
2017-09-05T04:48:29.502Z,54.1
2017-09-05T04:49:31.920Z,54.2
2017-09-05T04:50:34.683Z,54.2
2017-09-05T04:51:37.114Z,54.2
2017-09-05T04:52:39.532Z,54.2
2017-09-05T04:53:41.951Z,54.3
2017-09-05T04:54:44.378Z,54.3
2017-09-05T04:55:46.805Z,54.3
2017-09-05T04:56:49.229Z,54.3
2017-09-05T04:57:51.653Z,54.2
2017-09-05T04:58:54.069Z,54.3
2017-09-05T04:59:56.495Z,54.2
2017-09-05T05:00:58.922Z,54.2
2017-09-05T05:02:01.339Z,54.2
2017-09-05T05:03:03.758Z,54.2
2017-09-05T05:04:06.175Z,54.3
2017-09-05T05:05:08.604Z,54.2
2017-09-05T05:06:11.379Z,54.2
2017-09-05T05:07:13.800Z,54.1
2017-09-05T05:08:16.221Z,54.2
2017-09-05T05:09:18.641Z,54.3
2017-09-05T05:10:21.065Z,54.2
2017-09-05T05:11:23.493Z,54.3
2017-09-05T05:12:25.918Z,54.3
2017-09-05T05:13:28.335Z,54.2
2017-09-05T05:14:30.761Z,54.3
2017-09-05T05:15:33.185Z,54.3
2017-09-05T05:16:35.611Z,54.3
2017-09-05T05:17:38.027Z,54.2
2017-09-05T05:18:40.452Z,54.2
2017-09-05T05:19:42.879Z,54.4
2017-09-05T05:20:45.301Z,54.4
2017-09-05T05:21:47.722Z,54.4
2017-09-05T05:22:50.142Z,54.5
2017-09-05T05:23:52.564Z,54.5
2017-09-05T05:24:54.997Z,54.4
2017-09-05T05:25:57.418Z,54.4
2017-09-05T05:26:59.847Z,54.4
2017-09-05T05:28:02.261Z,54.4
2017-09-05T05:29:04.681Z,54.4
2017-09-05T05:30:07.111Z,54.4
2017-09-05T05:31:09.534Z,54.3
2017-09-05T05:32:11.955Z,54.4
2017-09-05T05:33:14.382Z,54.3
2017-09-05T05:34:16.818Z,54.3
2017-09-05T05:35:19.231Z,54.2
2017-09-05T05:36:21.657Z,54.3
2017-09-05T05:37:24.414Z,54.2
2017-09-05T05:38:26.840Z,54.2
2017-09-05T05:39:29.263Z,54.2
2017-09-05T05:40:31.690Z,54.3
2017-09-05T05:41:34.116Z,54.2
2017-09-05T05:42:36.543Z,54.2
2017-09-05T05:43:38.970Z,54.3
2017-09-05T05:44:41.397Z,54.3
2017-09-05T05:45:44.158Z,54.2
2017-09-05T05:46:46.583Z,54.2
2017-09-05T05:47:48.997Z,54.2
2017-09-05T05:48:51.424Z,54.1
2017-09-05T05:49:53.847Z,54.1
2017-09-05T05:50:56.266Z,54.2
2017-09-05T05:51:58.685Z,54.1
2017-09-05T05:53:01.114Z,54
2017-09-05T05:54:03.532Z,54.1
2017-09-05T05:55:05.961Z,54.2
2017-09-05T05:56:08.388Z,54.1
2017-09-05T05:57:10.809Z,54.2
2017-09-05T05:58:13.228Z,54.2
2017-09-05T05:59:15.662Z,54.3
2017-09-05T06:00:18.075Z,54.2
2017-09-05T06:01:20.504Z,54.2
2017-09-05T06:02:22.933Z,54
2017-09-05T06:03:25.354Z,54.1
2017-09-05T06:04:27.775Z,54.3
2017-09-05T06:05:30.203Z,54
2017-09-05T06:06:32.967Z,54.2
2017-09-05T06:07:35.385Z,53.8
2017-09-05T06:08:37.811Z,54.1
2017-09-05T06:09:40.589Z,54.3
2017-09-05T06:10:43.007Z,54
2017-09-05T06:11:45.436Z,54
2017-09-05T06:12:47.856Z,54
2017-09-05T06:13:50.282Z,54
2017-09-05T06:14:52.706Z,53.9
2017-09-05T06:15:55.134Z,54
2017-09-05T06:16:57.547Z,53.9
2017-09-05T06:17:59.973Z,53.9
2017-09-05T06:19:02.405Z,54
2017-09-05T06:20:04.826Z,53.9
2017-09-05T06:21:07.249Z,54
2017-09-05T06:22:09.670Z,54
2017-09-05T06:23:12.087Z,54
2017-09-05T06:24:14.525Z,53.8
2017-09-05T06:25:16.941Z,53.8
2017-09-05T06:26:19.366Z,53.8
2017-09-05T06:27:22.137Z,53.7
2017-09-05T06:28:24.562Z,53.8
2017-09-05T06:29:26.987Z,53.7
2017-09-05T06:30:29.415Z,53.6
2017-09-05T06:31:31.831Z,53.7
2017-09-05T06:32:34.246Z,53.6
2017-09-05T06:33:36.671Z,53.6
2017-09-05T06:34:39.100Z,53.6
2017-09-05T06:35:41.519Z,53.6
2017-09-05T06:36:43.950Z,53.6
2017-09-05T06:37:46.381Z,53.5
2017-09-05T06:38:48.805Z,53.6
2017-09-05T06:39:51.233Z,53.6
2017-09-05T06:40:53.653Z,53.5
2017-09-05T06:41:56.076Z,53.6
2017-09-05T06:42:58.514Z,53.5
2017-09-05T06:44:00.940Z,53.5
2017-09-05T06:45:03.369Z,53.5
2017-09-05T06:46:05.793Z,53.4
2017-09-05T06:47:08.222Z,53.4
2017-09-05T06:48:10.652Z,53.4
2017-09-05T06:49:13.081Z,53.4
2017-09-05T06:50:15.501Z,53.5
2017-09-05T06:51:17.929Z,53.5
2017-09-05T06:52:20.349Z,53.6
2017-09-05T06:53:22.775Z,53.5
2017-09-05T06:54:25.202Z,53.6
2017-09-05T06:55:27.625Z,53.5
2017-09-05T06:56:30.396Z,53.6
2017-09-05T06:57:32.838Z,53.5
2017-09-05T06:58:35.264Z,53.5
2017-09-05T06:59:37.695Z,53.4
2017-09-05T07:00:40.126Z,53.4
2017-09-05T07:01:42.561Z,53.4
2017-09-05T07:02:44.984Z,53.3
2017-09-05T07:03:47.407Z,53.4
2017-09-05T07:04:49.842Z,53.4
2017-09-05T07:05:52.264Z,53.3
2017-09-05T07:06:54.689Z,53.3
2017-09-05T07:07:57.124Z,53.2
2017-09-05T07:08:59.551Z,53.2
2017-09-05T07:10:01.979Z,53.1
2017-09-05T07:11:04.409Z,53.1
2017-09-05T07:12:06.832Z,53.1
2017-09-05T07:13:09.259Z,53
2017-09-05T07:14:12.039Z,53
2017-09-05T07:15:14.473Z,53
2017-09-05T07:16:16.903Z,52.8
2017-09-05T07:17:19.335Z,52.8
2017-09-05T07:18:21.765Z,52.7
2017-09-05T07:19:24.192Z,52.7
2017-09-05T07:20:26.966Z,52.8
2017-09-05T07:21:29.390Z,52.7
2017-09-05T07:22:31.816Z,52.6
2017-09-05T07:23:34.259Z,52.5
2017-09-05T07:24:36.680Z,52.4
2017-09-05T07:25:39.117Z,52.5
2017-09-05T07:26:41.543Z,52.4
2017-09-05T07:27:43.967Z,52.4
2017-09-05T07:28:46.741Z,52.5
2017-09-05T07:29:49.175Z,52.5
2017-09-05T07:30:51.603Z,52.4
2017-09-05T07:31:54.030Z,52.4
2017-09-05T07:32:56.462Z,52.4
2017-09-05T07:33:58.894Z,52.4
2017-09-05T07:35:01.329Z,52.5
2017-09-05T07:36:03.766Z,52.5
2017-09-05T07:37:06.197Z,52.5
2017-09-05T07:38:08.634Z,52.4
2017-09-05T07:39:11.069Z,52.4
2017-09-05T07:40:13.490Z,52.3
2017-09-05T07:41:15.918Z,52.4
2017-09-05T07:42:18.348Z,52.4
2017-09-05T07:43:20.780Z,52.3
2017-09-05T07:44:23.205Z,52.2
2017-09-05T07:45:25.638Z,52.1
2017-09-05T07:46:28.071Z,52.2
2017-09-05T07:47:30.505Z,52.3
2017-09-05T07:48:32.942Z,52.4
2017-09-05T07:49:35.361Z,52.2
2017-09-05T07:50:37.791Z,52
2017-09-05T07:51:40.234Z,52
2017-09-05T07:52:42.665Z,51.9
2017-09-05T07:53:45.094Z,51.8
2017-09-05T07:54:47.523Z,51.7
2017-09-05T07:55:49.951Z,51.6
2017-09-05T07:56:52.388Z,51.6
2017-09-05T07:57:54.825Z,51.7
2017-09-05T07:58:57.247Z,51.8
2017-09-05T07:59:59.676Z,51.8
2017-09-05T08:01:02.109Z,51.8
2017-09-05T08:02:04.544Z,51.9
2017-09-05T08:03:06.978Z,51.9
2017-09-05T08:04:09.416Z,51.9
2017-09-05T08:05:11.850Z,51.9
2017-09-05T08:06:14.618Z,52
2017-09-05T08:07:17.043Z,52
2017-09-05T08:08:19.476Z,52
2017-09-05T08:09:21.907Z,52
2017-09-05T08:10:24.337Z,52
2017-09-05T08:11:26.767Z,52.1
2017-09-05T08:12:29.199Z,52.1
2017-09-05T08:13:31.641Z,52
2017-09-05T08:14:34.070Z,51.9
2017-09-05T08:15:36.508Z,51.8
2017-09-05T08:16:38.940Z,51.7
2017-09-05T08:17:41.379Z,51.6
2017-09-05T08:18:43.814Z,51.6
2017-09-05T08:19:46.250Z,51.5
2017-09-05T08:20:48.680Z,51.5
2017-09-05T08:21:51.107Z,51.5
2017-09-05T08:22:53.553Z,51.4
2017-09-05T08:23:55.984Z,51.3
2017-09-05T08:24:58.789Z,51.3
2017-09-05T08:26:01.209Z,51.2
2017-09-05T08:27:03.650Z,51.2
2017-09-05T08:28:06.426Z,51.1
2017-09-05T08:29:08.863Z,51
2017-09-05T08:30:11.296Z,51
2017-09-05T08:31:13.736Z,51
2017-09-05T08:32:16.171Z,51.1
2017-09-05T08:33:18.604Z,51
2017-09-05T08:34:21.039Z,51
2017-09-05T08:35:23.478Z,51.1
2017-09-05T08:36:25.908Z,51.2
2017-09-05T08:37:28.335Z,51.2
2017-09-05T08:38:31.113Z,51.2
2017-09-05T08:39:33.548Z,51.2
2017-09-05T08:40:35.985Z,51.3
2017-09-05T08:41:38.771Z,51.3
2017-09-05T08:42:41.201Z,51.2
2017-09-05T08:43:43.638Z,51.2
2017-09-05T08:44:46.439Z,51.2
2017-09-05T08:45:48.870Z,51.2
2017-09-05T08:46:51.321Z,51.1
2017-09-05T08:47:53.753Z,51
2017-09-05T08:48:56.189Z,50.9
2017-09-05T08:49:58.625Z,51
2017-09-05T08:51:01.059Z,51
2017-09-05T08:52:03.498Z,50.8
2017-09-05T08:53:05.940Z,50.6
2017-09-05T08:54:08.370Z,50.6
2017-09-05T08:55:10.816Z,50.5
2017-09-05T08:56:13.259Z,50.4
2017-09-05T08:57:15.703Z,50.2
2017-09-05T08:58:18.508Z,50.1
2017-09-05T08:59:20.950Z,50
2017-09-05T09:00:23.382Z,49.9
2017-09-05T09:01:25.832Z,49.9
2017-09-05T09:02:28.273Z,49.9
2017-09-05T09:03:30.707Z,49.7
2017-09-05T09:04:33.153Z,49.7
2017-09-05T09:05:35.591Z,49.6
2017-09-05T09:06:38.420Z,49.4
2017-09-05T09:07:40.866Z,49.4
2017-09-05T09:08:43.307Z,49.2
2017-09-05T09:09:45.759Z,49
2017-09-05T09:10:48.554Z,48.9
2017-09-05T09:11:50.993Z,48.7
2017-09-05T09:12:53.438Z,48.5
2017-09-05T09:13:55.880Z,48.2
2017-09-05T09:14:58.327Z,48.2
2017-09-05T09:16:00.773Z,48.1
2017-09-05T09:17:03.219Z,47.6
2017-09-05T09:18:05.659Z,47.6
2017-09-05T09:19:08.105Z,47.6
2017-09-05T09:20:10.552Z,47.6
2017-09-05T09:21:13.346Z,47.6
2017-09-05T09:22:15.792Z,47.5
2017-09-05T09:23:18.241Z,47.5
2017-09-05T09:24:21.111Z,47.3
2017-09-05T09:25:23.686Z,47.1
2017-09-05T09:26:26.130Z,46.9
2017-09-05T09:27:28.917Z,46.8
2017-09-05T09:28:31.364Z,46.6
2017-09-05T09:29:33.813Z,46.5
2017-09-05T09:30:36.600Z,46.3
2017-09-05T09:31:39.050Z,46
2017-09-05T09:32:41.499Z,45.7
2017-09-05T09:33:43.948Z,45.6
2017-09-05T09:34:46.393Z,45.5
2017-09-05T09:35:48.841Z,45.3
2017-09-05T09:36:51.301Z,45.1
2017-09-05T09:37:53.748Z,45.1
2017-09-05T09:38:56.201Z,45.1
2017-09-05T09:39:58.651Z,44.8
2017-09-05T09:41:01.101Z,44.4
2017-09-05T09:42:03.547Z,44.5
2017-09-05T09:43:05.993Z,44.5
2017-09-05T09:44:08.438Z,44.6
2017-09-05T09:45:11.249Z,44.7
2017-09-05T09:46:13.696Z,44.7
2017-09-05T09:47:16.144Z,44.4
2017-09-05T09:48:18.595Z,44
2017-09-05T09:49:21.044Z,43.7
2017-09-05T09:50:23.495Z,43.5
2017-09-05T09:51:25.936Z,43.3
2017-09-05T09:52:28.380Z,43.2
2017-09-05T09:53:30.848Z,42.9
2017-09-05T09:54:33.299Z,42.6
2017-09-05T09:55:35.737Z,42.4
2017-09-05T09:56:38.188Z,42.4
2017-09-05T09:57:40.631Z,42.2
2017-09-05T09:58:43.086Z,41.9
2017-09-05T09:59:45.531Z,41.9
2017-09-05T10:00:47.989Z,41.6
2017-09-05T10:01:50.430Z,41.4
2017-09-05T10:02:52.878Z,41.4
2017-09-05T10:03:55.330Z,41.4
2017-09-05T10:04:57.772Z,41.5
2017-09-05T10:06:00.213Z,41.4
2017-09-05T10:07:02.672Z,41.4
2017-09-05T10:08:05.112Z,41.5
2017-09-05T10:09:07.559Z,41.3
2017-09-05T10:10:10.010Z,41.2
2017-09-05T10:11:12.459Z,41.1
2017-09-05T10:12:15.616Z,41.2
2017-09-05T10:13:18.408Z,41
2017-09-05T10:14:20.851Z,41
2017-09-05T10:15:23.304Z,40.8
2017-09-05T10:16:25.753Z,40.6
2017-09-05T10:17:28.197Z,40.6
2017-09-05T10:18:30.983Z,40.4
2017-09-05T10:19:33.439Z,40.2
2017-09-05T10:20:35.889Z,40.2
2017-09-05T10:21:38.335Z,40.2
2017-09-05T10:22:41.123Z,40.3
2017-09-05T10:23:43.565Z,40.3
2017-09-05T10:24:46.011Z,40.2
2017-09-05T10:25:48.462Z,40.1
2017-09-05T10:26:50.901Z,40
2017-09-05T10:27:53.689Z,39.8
2017-09-05T10:28:56.150Z,39.6
2017-09-05T10:29:58.593Z,39.6
2017-09-05T10:31:01.041Z,39.6
2017-09-05T10:32:03.497Z,39.6
2017-09-05T10:33:06.292Z,39.4
2017-09-05T10:34:08.729Z,39.2
2017-09-05T10:35:11.180Z,39.2
2017-09-05T10:36:13.637Z,39.1
2017-09-05T10:37:16.080Z,39.1
2017-09-05T10:38:18.536Z,38.8
2017-09-05T10:39:20.987Z,38.5
2017-09-05T10:40:23.431Z,38
2017-09-05T10:41:25.887Z,37.9
2017-09-05T10:42:28.342Z,38
2017-09-05T10:43:30.783Z,37.8
2017-09-05T10:44:33.578Z,37.5
2017-09-05T10:45:36.033Z,37.7
2017-09-05T10:46:38.480Z,37.9
2017-09-05T10:47:40.929Z,38
2017-09-05T10:48:43.374Z,38
2017-09-05T10:49:45.819Z,38
2017-09-05T10:50:48.276Z,37.7
2017-09-05T10:51:50.718Z,37.7
2017-09-05T10:52:53.168Z,37.6
2017-09-05T10:53:55.623Z,37.6
2017-09-05T10:54:58.074Z,37.5
2017-09-05T10:56:00.521Z,37.4
2017-09-05T10:57:02.970Z,37.4
2017-09-05T10:58:05.762Z,37.2
2017-09-05T10:59:08.562Z,37.1
2017-09-05T11:00:11.008Z,37
2017-09-05T11:01:13.456Z,36.9
2017-09-05T11:02:15.917Z,36.8
2017-09-05T11:03:18.717Z,36.6
2017-09-05T11:04:21.160Z,36.5
2017-09-05T11:05:23.611Z,36.4
2017-09-05T11:06:26.058Z,36.3
2017-09-05T11:07:28.511Z,36.4
2017-09-05T11:08:30.968Z,36.3
2017-09-05T11:09:33.409Z,36.2
2017-09-05T11:10:35.858Z,36.3
2017-09-05T11:11:38.316Z,36.2
2017-09-05T11:12:40.770Z,36.1
2017-09-05T11:13:43.222Z,36
2017-09-05T11:14:45.662Z,36
2017-09-05T11:15:48.114Z,35.9
2017-09-05T11:16:50.574Z,35.8
2017-09-05T11:17:53.026Z,35.5
2017-09-05T11:18:55.475Z,35.4
2017-09-05T11:19:57.927Z,35.3
2017-09-05T11:21:00.379Z,35.1
2017-09-05T11:22:03.178Z,35.1
2017-09-05T11:23:05.619Z,35
2017-09-05T11:24:08.060Z,35
2017-09-05T11:25:10.512Z,35.1
2017-09-05T11:26:12.965Z,35.1
2017-09-05T11:27:15.467Z,35.2
2017-09-05T11:28:17.916Z,35.1
2017-09-05T11:29:20.367Z,35.2
2017-09-05T11:30:22.817Z,35.3
2017-09-05T11:31:25.263Z,35.4
2017-09-05T11:32:27.713Z,35.6
2017-09-05T11:33:30.165Z,35.5
2017-09-05T11:34:32.622Z,35.4
2017-09-05T11:35:35.073Z,35.2
2017-09-05T11:36:37.526Z,35.2
2017-09-05T11:37:39.983Z,35.2
2017-09-05T11:38:42.439Z,35.2
2017-09-05T11:39:44.885Z,35.2
2017-09-05T11:40:47.342Z,35.1
2017-09-05T11:41:49.782Z,35.1
2017-09-05T11:42:52.243Z,35.1
2017-09-05T11:43:54.692Z,35
2017-09-05T11:44:57.141Z,34.9
2017-09-05T11:45:59.585Z,34.9
2017-09-05T11:47:02.041Z,34.9
2017-09-05T11:48:04.490Z,34.9
2017-09-05T11:49:06.947Z,34.8
2017-09-05T11:50:09.398Z,34.5
2017-09-05T11:51:11.845Z,34.4
2017-09-05T11:52:14.302Z,34.4
2017-09-05T11:53:16.756Z,34.2
2017-09-05T11:54:19.208Z,34.4
2017-09-05T11:55:21.656Z,34.4
2017-09-05T11:56:24.107Z,34.4
2017-09-05T11:57:26.592Z,34.4
2017-09-05T11:58:29.001Z,34.4
2017-09-05T11:59:31.447Z,34.3
2017-09-05T12:00:33.905Z,34.2
2017-09-05T12:01:36.349Z,34
2017-09-05T12:02:38.797Z,33.9
2017-09-05T12:03:41.251Z,33.8
2017-09-05T12:04:43.711Z,33.9
2017-09-05T12:05:46.184Z,34
2017-09-05T12:06:48.644Z,33.8
2017-09-05T12:07:51.445Z,33.7
2017-09-05T12:08:53.891Z,33.7
2017-09-05T12:09:56.683Z,33.6
2017-09-05T12:10:59.132Z,33.4
2017-09-05T12:12:01.582Z,33.4
2017-09-05T12:13:04.039Z,33.4
2017-09-05T12:14:06.479Z,33.3
2017-09-05T12:15:08.943Z,33.1
2017-09-05T12:16:11.384Z,33.2
2017-09-05T12:17:13.833Z,32.8
2017-09-05T12:18:16.285Z,32.3
2017-09-05T12:19:18.738Z,32.3
2017-09-05T12:20:21.182Z,32.3
2017-09-05T12:21:23.649Z,32.4
2017-09-05T12:22:26.093Z,32.4
2017-09-05T12:23:29.226Z,32.6
2017-09-05T12:24:31.682Z,32.9
2017-09-05T12:25:34.139Z,32.9
2017-09-05T12:26:36.583Z,33
2017-09-05T12:27:39.031Z,32.8
2017-09-05T12:28:41.832Z,32.9
2017-09-05T12:29:44.285Z,32.8
2017-09-05T12:30:46.729Z,32.8
2017-09-05T12:31:49.184Z,32.8
2017-09-05T12:32:51.985Z,32.7
2017-09-05T12:33:54.433Z,32.3
2017-09-05T12:34:56.883Z,32.3
2017-09-05T12:35:59.330Z,32.3
2017-09-05T12:37:01.774Z,32.4
2017-09-05T12:38:04.222Z,32.2
2017-09-05T12:39:06.671Z,32.4
2017-09-05T12:40:09.109Z,32.5
2017-09-05T12:41:11.559Z,32.5
2017-09-05T12:42:14.018Z,32.7
2017-09-05T12:43:16.469Z,32.7
2017-09-05T12:44:18.933Z,32.8
2017-09-05T12:45:21.375Z,32.8
2017-09-05T12:46:23.820Z,33
2017-09-05T12:47:26.279Z,33.2
2017-09-05T12:48:28.732Z,33.3
2017-09-05T12:49:31.181Z,33.4
2017-09-05T12:50:33.632Z,33.5
2017-09-05T12:51:36.077Z,33.5
2017-09-05T12:52:38.523Z,33.6
2017-09-05T12:53:40.977Z,33.7
2017-09-05T12:54:43.418Z,33.7
2017-09-05T12:55:45.862Z,33.6
2017-09-05T12:56:48.317Z,33.7
2017-09-05T12:57:50.758Z,33.7
2017-09-05T12:58:53.216Z,33.6
2017-09-05T12:59:55.661Z,33.6
2017-09-05T13:00:58.449Z,33.5
2017-09-05T13:02:00.898Z,33.4
2017-09-05T13:03:03.347Z,33.2
2017-09-05T13:04:06.142Z,33.2
2017-09-05T13:05:08.592Z,33.1
2017-09-05T13:06:11.037Z,33.1
2017-09-05T13:07:13.484Z,33.1
2017-09-05T13:08:15.933Z,33.1
2017-09-05T13:09:18.383Z,33.1
2017-09-05T13:10:21.512Z,32.8
2017-09-05T13:11:23.956Z,32.5
2017-09-05T13:12:26.404Z,32.5
2017-09-05T13:13:28.862Z,32.5
2017-09-05T13:14:31.645Z,32.4
2017-09-05T13:15:34.093Z,32.4
2017-09-05T13:16:36.542Z,32.3
2017-09-05T13:17:38.996Z,32.1
2017-09-05T13:18:41.449Z,32
2017-09-05T13:19:44.261Z,32
2017-09-05T13:20:46.693Z,32.1
2017-09-05T13:21:49.141Z,31.9
2017-09-05T13:22:51.594Z,32
2017-09-05T13:23:54.040Z,32
2017-09-05T13:24:56.490Z,32
2017-09-05T13:25:58.945Z,32.2
2017-09-05T13:27:01.388Z,32.1
2017-09-05T13:28:03.833Z,32.2
2017-09-05T13:29:06.644Z,32.3
2017-09-05T13:30:09.446Z,32.2
2017-09-05T13:31:11.885Z,32.4
2017-09-05T13:32:14.325Z,32.5
2017-09-05T13:33:16.773Z,32.7
2017-09-05T13:34:19.217Z,32.8
2017-09-05T13:35:21.668Z,32.9
2017-09-05T13:36:24.118Z,32.8
2017-09-05T13:37:26.555Z,32.9
2017-09-05T13:38:29.350Z,32.9
2017-09-05T13:39:31.804Z,33
2017-09-05T13:40:34.256Z,33
2017-09-05T13:41:37.043Z,33
2017-09-05T13:42:39.485Z,33
2017-09-05T13:43:42.268Z,33
2017-09-05T13:44:44.726Z,33
2017-09-05T13:45:47.168Z,32.9
2017-09-05T13:46:49.610Z,32.9
2017-09-05T13:47:52.058Z,32.7
2017-09-05T13:48:54.512Z,32.7
2017-09-05T13:49:56.964Z,32.8
2017-09-05T13:50:59.404Z,32.8
2017-09-05T13:52:02.185Z,32.7
2017-09-05T13:53:04.631Z,32.4
2017-09-05T13:54:07.092Z,32.3
2017-09-05T13:55:09.527Z,32.3
2017-09-05T13:56:11.970Z,32
2017-09-05T13:57:14.413Z,31.6